Time;durP1;ratioP1;P1;durP2;ratioP2;P2;SDS_P1;SDS_P2;PMS_P1;PMS_P2;Temp;Humidity;BMP_temperature;BMP_pressure;BME280_temperature;BME280_humidity;BME280_pressure;Samples;Min_cycle;Max_cycle;Signal;HPM_P1;HPM_P2
2023/05/26 00:03:48;;;;;;;15.88;4.28;;;;;;;14.95;85.55;101479.14;5123399;56;1140950;-80
2023/05/26 00:08:54;;;;;;;17.25;5.00;;;;;;;15.03;86.36;101479.36;5103322;56;1140954;-80
2023/05/26 00:14:00;;;;;;;13.97;4.27;;;;;;;15.25;87.05;101479.80;5103156;56;1140912;-78
2023/05/26 00:19:07;;;;;;;14.67;4.97;;;;;;;15.32;85.91;101482.30;5048502;56;1141037;-80
2023/05/26 00:24:13;;;;;;;17.17;5.23;;;;;;;15.40;85.95;101484.36;5028440;57;1141118;-75
2023/05/26 00:29:18;;;;;;;16.13;4.63;;;;;;;15.39;85.25;101483.99;5051131;56;1141242;-76
2023/05/26 00:34:24;;;;;;;15.30;4.47;;;;;;;15.31;84.48;101477.95;5103473;56;1140858;-79
2023/05/26 00:39:32;;;;;;;16.67;5.67;;;;;;;15.25;84.89;101478.47;5123262;56;1140897;-78
2023/05/26 00:44:37;;;;;;;12.23;5.30;;;;;;;15.03;83.63;101479.84;5103331;56;1140847;-79
2023/05/26 00:49:43;;;;;;;15.85;5.25;;;;;;;14.79;84.05;101472.02;5103091;55;1140891;-76
2023/05/26 00:54:50;;;;;;;12.50;4.63;;;;;;;14.60;84.30;101469.97;5055552;56;1140941;-76
2023/05/26 00:59:58;;;;;;;10.27;3.27;;;;;;;14.37;84.63;101475.73;5040320;56;1140947;-78
2023/05/26 01:05:06;;;;;;;21.90;8.30;;;;;;;14.10;84.97;101463.25;5040134;56;1140994;-77
2023/05/26 01:10:12;;;;;;;19.35;7.17;;;;;;;13.94;86.16;101458.73;5103137;56;1140884;-78
2023/05/26 01:15:28;;;;;;;23.87;8.37;;;;;;;13.81;86.86;101461.98;5145753;56;1140802;-77
2023/05/26 01:20:50;;;;;;;11.13;4.73;;;;;;;13.72;87.13;101456.89;5093806;56;1140991;-78
2023/05/26 01:26:29;;;;;;;11.93;4.10;;;;;;;13.55;87.39;101458.64;5031349;57;1140781;-77
2023/05/26 01:31:38;;;;;;;14.57;4.33;;;;;;;13.31;87.61;101455.50;5106304;56;1140905;-77
2023/05/26 01:36:43;;;;;;;15.95;3.95;;;;;;;13.19;88.10;101465.72;5135491;56;1140811;-76
2023/05/26 01:42:07;;;;;;;15.98;4.30;;;;;;;13.07;88.33;101456.44;5122918;56;1140833;-77
2023/05/26 01:47:15;;;;;;;15.53;5.03;;;;;;;12.99;88.60;101463.63;5125299;56;1141066;-78
2023/05/26 01:52:21;;;;;;;15.67;4.33;;;;;;;12.89;88.97;101455.48;5115297;56;1140828;-80
2023/05/26 01:57:29;;;;;;;17.93;5.10;;;;;;;12.82;89.44;101454.25;5135076;56;1140829;-76
2023/05/26 02:02:35;;;;;;;20.43;4.57;;;;;;;13.00;90.58;101462.67;5114795;56;1140838;-76
2023/05/26 02:07:42;;;;;;;18.20;4.77;;;;;;;13.22;90.82;101461.51;5095617;56;1140881;-76
2023/05/26 02:12:48;;;;;;;16.67;4.60;;;;;;;13.33;89.92;101468.20;5050881;56;1141158;-78
2023/05/26 02:17:54;;;;;;;12.40;4.40;;;;;;;13.42;89.40;101473.33;5030902;56;1141073;-77
2023/05/26 02:23:00;;;;;;;13.77;4.90;;;;;;;13.46;88.97;101472.59;5085063;56;1140898;-79
2023/05/26 02:28:05;;;;;;;12.33;4.93;;;;;;;13.41;88.05;101471.63;5121947;56;1140858;-76
2023/05/26 02:33:11;;;;;;;11.93;5.13;;;;;;;13.16;87.15;101480.55;5150872;56;1140877;-81
2023/05/26 02:38:18;;;;;;;19.60;5.57;;;;;;;12.94;87.12;101474.59;5124832;56;1140890;-80
2023/05/26 02:43:24;;;;;;;13.30;5.87;;;;;;;12.67;87.09;101476.58;5123426;56;1140920;-75
2023/05/26 02:48:30;;;;;;;18.53;5.20;;;;;;;12.45;87.74;101476.39;5150752;56;1141054;-76
2023/05/26 02:53:36;;;;;;;15.73;4.97;;;;;;;12.27;88.09;101478.04;5130580;56;1141217;-76
2023/05/26 02:58:41;;;;;;;13.23;4.20;;;;;;;12.22;88.67;101478.01;5130768;56;1140900;-75
2023/05/26 03:03:47;;;;;;;16.57;5.22;;;;;;;12.20;88.95;101471.48;5150830;56;1140770;-75
2023/05/26 03:08:53;;;;;;;18.12;4.87;;;;;;;12.16;89.16;101467.33;5099286;56;1140929;-75
2023/05/26 03:13:58;;;;;;;23.17;5.23;;;;;;;12.11;89.33;101469.44;5130525;56;1140918;-79
2023/05/26 03:19:05;;;;;;;18.30;4.78;;;;;;;11.90;89.18;101470.93;5129412;56;1141751;-77
2023/05/26 03:24:10;;;;;;;22.33;5.20;;;;;;;11.71;89.57;101477.06;5147761;56;1141063;-73
2023/05/26 03:29:16;;;;;;;20.43;5.87;;;;;;;11.45;90.18;101474.36;5125469;56;1141079;-77
2023/05/26 03:34:24;;;;;;;18.27;5.23;;;;;;;11.45;91.73;101483.63;5114431;56;1141057;-81
2023/05/26 03:39:30;;;;;;;23.00;5.70;;;;;;;11.70;92.62;101477.53;5079974;56;1141001;-80
2023/05/26 03:44:36;;;;;;;22.00;5.33;;;;;;;11.69;91.52;101469.68;5114501;56;1140916;-84
2023/05/26 03:49:42;;;;;;;17.37;4.70;;;;;;;11.61;91.73;101474.16;5114435;56;1140763;-77
2023/05/26 03:54:48;;;;;;;24.43;6.60;;;;;;;11.49;92.25;101466.55;5134248;56;1141049;-77
2023/05/26 03:59:54;;;;;;;18.50;4.95;;;;;;;11.41;92.76;101466.70;5114696;56;1140787;-80
2023/05/26 04:04:59;;;;;;;24.00;5.73;;;;;;;11.35;93.62;101465.77;5114632;56;1140829;-83
2023/05/26 04:10:07;;;;;;;21.97;6.37;;;;;;;11.24;94.55;101464.69;5082216;56;1140906;-83
2023/05/26 04:15:14;;;;;;;22.63;5.10;;;;;;;11.13;95.81;101465.86;5077350;56;1140967;-76
2023/05/26 04:20:20;;;;;;;16.17;5.37;;;;;;;11.00;97.57;101470.22;5108225;56;1140840;-75
2023/05/26 04:25:26;;;;;;;21.23;5.37;;;;;;;10.97;99.50;101472.23;5114557;56;1140932;-81
2023/05/26 04:30:38;;;;;;;30.70;7.17;;;;;;;10.89;100.00;101478.01;5134673;56;1140792;-76
2023/05/26 04:35:54;;;;;;;30.23;6.30;;;;;;;10.89;100.00;101478.01;5109247;56;1143243;-81
2023/05/26 04:41:00;;;;;;;23.33;5.20;;;;;;;10.93;100.00;101482.17;5041382;56;1142965;-80
2023/05/26 04:46:06;;;;;;;18.63;6.13;;;;;;;10.96;100.00;101488.59;5041827;56;1143132;-75
2023/05/26 04:51:11;;;;;;;23.30;8.50;;;;;;;11.00;100.00;101490.08;5087688;56;1142956;-78
2023/05/26 04:56:17;;;;;;;18.97;5.67;;;;;;;11.03;100.00;101493.00;5125057;56;1142894;-77
2023/05/26 05:01:25;;;;;;;22.63;6.30;;;;;;;11.08;100.00;101490.92;5124243;56;1143245;-79
2023/05/26 05:06:48;;;;;;;20.12;5.80;;;;;;;11.09;100.00;101489.98;5140789;56;1143151;-81
2023/05/26 05:11:54;;;;;;;25.23;5.97;;;;;;;11.22;100.00;101490.41;5041532;56;1143030;-80
2023/05/26 05:17:02;;;;;;;24.07;4.87;;;;;;;11.34;100.00;101496.70;5041629;55;1142948;-78
2023/05/26 05:22:09;;;;;;;18.12;4.78;;;;;;;11.54;100.00;101496.25;5041651;56;1143144;-73
2023/05/26 05:27:15;;;;;;;25.60;5.97;;;;;;;11.78;100.00;101501.73;5061716;56;1142931;-82
2023/05/26 05:32:21;;;;;;;20.20;5.10;;;;;;;11.92;100.00;101500.33;5041086;56;1142859;-75
2023/05/26 05:37:27;;;;;;;26.17;5.20;;;;;;;11.90;100.00;101498.77;5068934;56;1142932;-78
2023/05/26 05:42:33;;;;;;;22.23;5.27;;;;;;;11.83;100.00;101506.27;5135099;56;1143100;-78
2023/05/26 05:47:39;;;;;;;21.73;5.63;;;;;;;11.86;100.00;101514.49;5114772;56;1143040;-79
2023/05/26 05:52:44;;;;;;;20.67;4.67;;;;;;;11.92;100.00;101512.27;5113158;56;1143113;-79
2023/05/26 05:57:53;;;;;;;32.73;5.92;;;;;;;11.99;100.00;101515.36;5135098;56;1142832;-78
2023/05/26 06:02:59;;;;;;;18.85;4.37;;;;;;;12.21;100.00;101518.74;5114721;56;1143082;-77
2023/05/26 06:08:05;;;;;;;22.07;5.07;;;;;;;12.41;100.00;101516.02;5088187;56;1143171;-82
2023/05/26 06:13:11;;;;;;;19.70;4.97;;;;;;;12.47;99.55;101512.95;5097333;56;1143046;-80
2023/05/26 06:18:18;;;;;;;20.70;4.47;;;;;;;12.65;98.87;101521.81;5125556;56;1141072;-79
2023/05/26 06:23:26;;;;;;;23.23;5.40;;;;;;;12.81;97.24;101515.42;5071385;56;1140841;-80
2023/05/26 06:28:32;;;;;;;22.67;4.80;;;;;;;12.87;96.34;101515.81;5113427;56;1140826;-81
2023/05/26 06:33:39;;;;;;;18.43;4.43;;;;;;;13.06;96.54;101511.36;5134692;56;1140791;-78
2023/05/26 06:38:44;;;;;;;21.50;5.22;;;;;;;13.13;95.42;101519.75;5123000;56;1141010;-81
2023/05/26 06:43:50;;;;;;;23.60;4.80;;;;;;;13.15;94.38;101515.18;5123306;56;1140818;-81
2023/05/26 06:48:56;;;;;;;17.32;4.70;;;;;;;13.34;95.65;101523.52;5150975;56;1140929;-76
2023/05/26 06:54:15;;;;;;;30.13;4.53;;;;;;;13.62;94.93;101519.66;5128085;56;1140919;-80
2023/05/26 06:59:20;;;;;;;22.53;5.47;;;;;;;13.73;90.96;101516.59;5079694;56;1140894;-76
2023/05/26 07:04:26;;;;;;;21.17;4.50;;;;;;;13.86;92.56;101522.31;5137101;56;1140952;-74
2023/05/26 07:09:32;;;;;;;16.57;5.07;;;;;;;14.15;91.95;101521.43;5106057;56;1140920;-77
2023/05/26 07:14:39;;;;;;;17.77;4.87;;;;;;;14.35;87.82;101520.75;5129653;56;1141170;-76
2023/05/26 07:19:45;;;;;;;25.43;5.17;;;;;;;14.41;86.42;101526.46;5144554;56;1141320;-83
2023/05/26 07:24:51;;;;;;;19.85;4.95;;;;;;;14.60;88.20;101524.55;5126699;56;1140845;-81
2023/05/26 07:30:01;;;;;;;21.00;4.33;;;;;;;14.77;87.32;101526.73;5114794;55;1141214;-79
2023/05/26 07:35:11;;;;;;;21.87;4.72;;;;;;;15.03;85.76;101527.80;5130320;56;1140905;-82
2023/05/26 07:40:18;;;;;;;22.73;5.85;;;;;;;15.15;82.77;101533.47;5114406;56;1140927;-82
2023/05/26 07:45:23;;;;;;;16.33;4.43;;;;;;;15.12;81.24;101530.55;5130237;56;1140746;-79
2023/05/26 07:50:29;;;;;;;17.73;4.23;;;;;;;15.16;79.64;101537.83;5125976;56;1140834;-79
2023/05/26 07:55:35;;;;;;;19.47;3.43;;;;;;;15.20;80.90;101540.61;5150213;56;1140955;-79
2023/05/26 08:00:40;;;;;;;14.50;4.30;;;;;;;15.39;78.24;101543.48;5097205;56;1140850;-80
2023/05/26 08:05:46;;;;;;;14.07;3.50;;;;;;;15.37;75.71;101548.09;5045938;56;1140882;-84
2023/05/26 08:10:51;;;;;;;17.52;4.25;;;;;;;15.28;74.32;101555.48;5138914;56;1140870;-74
2023/05/26 08:15:57;;;;;;;13.50;3.00;;;;;;;15.21;73.28;101560.12;5123846;56;1140924;-75
2023/05/26 08:21:03;;;;;;;14.67;3.97;;;;;;;15.36;74.79;101559.73;5124529;56;1140726;-79
2023/05/26 08:26:08;;;;;;;18.63;4.07;;;;;;;15.60;73.82;101554.71;5105031;55;1141097;-78
2023/05/26 08:31:14;;;;;;;16.97;3.97;;;;;;;15.78;74.48;101551.86;5122893;56;1141059;-77
2023/05/26 08:36:20;;;;;;;12.83;3.97;;;;;;;16.03;75.53;101558.20;5076852;56;1140944;-83
2023/05/26 08:41:28;;;;;;;14.40;3.43;;;;;;;16.28;70.37;101558.30;5113806;56;1141003;-80
2023/05/26 08:46:36;;;;;;;13.20;3.10;;;;;;;16.43;69.15;101550.80;5126870;56;1140817;-77
2023/05/26 08:51:46;;;;;;;18.47;5.00;;;;;;;16.48;69.39;101555.27;5099172;56;1140975;-79
2023/05/26 08:56:51;;;;;;;18.82;3.87;;;;;;;16.60;69.80;101556.88;5101242;56;1141065;-81
2023/05/26 09:02:00;;;;;;;10.98;3.47;;;;;;;16.62;70.76;101542.91;5125702;56;1140922;-85
2023/05/26 09:07:08;;;;;;;20.83;3.90;;;;;;;16.64;64.59;101536.97;5114098;56;1140938;-80
2023/05/26 09:12:14;;;;;;;20.83;5.00;;;;;;;16.68;65.49;101538.86;5008924;57;1140895;-79
2023/05/26 09:17:20;;;;;;;16.80;4.60;;;;;;;16.86;66.32;101547.95;4946871;57;1140808;-84
2023/05/26 09:22:34;;;;;;;14.90;3.83;;;;;;;16.91;66.77;101546.22;4942291;57;1141050;-80
2023/05/26 09:27:40;;;;;;;15.23;3.30;;;;;;;17.15;65.71;101543.55;4933219;57;1140943;-76
2023/05/26 09:32:47;;;;;;;20.02;4.97;;;;;;;17.23;68.24;101547.73;4893897;57;1141069;-80
2023/05/26 09:37:55;;;;;;;20.27;5.75;;;;;;;17.49;69.03;101546.72;5100357;56;1140865;-77
2023/05/26 09:43:01;;;;;;;19.93;4.23;;;;;;;17.71;66.19;101543.48;5090954;56;1140933;-77
2023/05/26 09:48:09;;;;;;;17.90;4.70;;;;;;;17.66;68.10;101543.04;5129140;56;1140870;-75
2023/05/26 09:53:15;;;;;;;14.17;4.20;;;;;;;17.83;62.67;101539.17;5150963;56;1140908;-78
2023/05/26 09:58:22;;;;;;;26.93;5.00;;;;;;;18.01;65.07;101536.64;5117185;56;1141061;-77
2023/05/26 10:03:30;;;;;;;15.23;5.00;;;;;;;18.16;66.09;101544.58;5121393;56;1140959;-78
2023/05/26 10:08:39;;;;;;;13.20;3.40;;;;;;;18.59;62.44;101533.86;5145586;56;1140977;-76
2023/05/26 10:13:44;;;;;;;15.10;4.92;;;;;;;18.71;59.79;101534.02;5130831;56;1140861;-73
2023/05/26 10:18:50;;;;;;;16.90;3.90;;;;;;;18.73;59.21;101521.33;5131136;56;1141028;-80
2023/05/26 10:24:03;;;;;;;18.00;4.12;;;;;;;18.92;56.72;101517.72;5147170;56;1140835;-74
2023/05/26 10:29:13;;;;;;;10.18;3.33;;;;;;;19.02;60.30;101515.82;5100068;56;1140786;-78
2023/05/26 10:34:45;;;;;;;14.33;4.33;;;;;;;19.26;56.82;101512.06;5121434;56;1140797;-78
2023/05/26 10:39:50;;;;;;;11.57;3.22;;;;;;;19.25;55.59;101519.77;5150518;56;1140850;-72
2023/05/26 10:44:56;;;;;;;17.37;4.28;;;;;;;19.39;51.60;101527.82;5116425;56;1140896;-79
2023/05/26 10:50:02;;;;;;;14.35;3.58;;;;;;;19.38;54.36;101522.11;5106842;56;1140953;-78
2023/05/26 10:55:08;;;;;;;24.55;5.00;;;;;;;19.51;51.05;101527.97;5106962;56;1140820;-76
2023/05/26 11:00:27;;;;;;;17.07;4.50;;;;;;;19.68;56.33;101518.73;5084230;56;1140928;-79
2023/05/26 11:05:34;;;;;;;17.92;4.20;;;;;;;19.91;55.84;101518.09;5035886;56;1140783;-76
2023/05/26 11:11:02;;;;;;;13.95;3.87;;;;;;;20.09;56.79;101520.76;5100083;56;1140767;-75
2023/05/26 11:16:23;;;;;;;12.03;4.05;;;;;;;20.41;52.87;101513.95;5022247;57;1140894;-81
2023/05/26 11:21:35;;;;;;;13.10;3.95;;;;;;;20.57;54.89;101516.24;5134895;56;1141155;-78
2023/05/26 11:26:38;;;;;;;16.07;3.75;;;;;;;20.69;53.78;101519.48;5066374;56;1141132;-73
2023/05/26 11:31:48;;;;;;;10.93;3.37;;;;;;;20.98;50.94;101507.00;5030849;56;1140999;-72
2023/05/26 11:36:55;;;;;;;10.32;3.37;;;;;;;21.12;51.72;101502.34;5050813;56;1140997;-77
2023/05/26 11:42:11;;;;;;;6.50;2.83;;;;;;;21.26;51.22;101500.39;5030754;57;1140931;-74
2023/05/26 11:47:20;;;;;;;12.25;3.30;;;;;;;21.25;43.05;101505.94;5039376;57;1138729;-82
2023/05/26 11:52:25;;;;;;;10.82;3.55;;;;;;;21.17;43.09;101507.24;5043684;56;1140989;-76
2023/05/26 11:57:33;;;;;;;9.90;3.02;;;;;;;21.15;47.04;101497.14;5063632;56;1141246;-76
2023/05/26 12:02:39;;;;;;;16.40;3.08;;;;;;;21.17;44.90;101498.67;5043608;57;1138828;-75
2023/05/26 12:07:46;;;;;;;12.00;3.58;;;;;;;21.34;45.36;101491.02;5064620;55;1141063;-77
2023/05/26 12:12:53;;;;;;;11.18;3.25;;;;;;;21.40;39.55;101499.75;5144393;55;1140955;-80
2023/05/26 12:18:02;;;;;;;9.03;3.47;;;;;;;21.40;42.17;101497.05;5071376;56;1140935;-75
2023/05/26 12:23:11;;;;;;;10.78;2.90;;;;;;;21.44;41.97;101500.27;5125889;56;1138832;-81
2023/05/26 12:28:14;;;;;;;10.48;3.30;;;;;;;21.71;44.01;101496.42;5088217;56;1140912;-78
2023/05/26 12:33:21;;;;;;;6.80;2.50;;;;;;;22.05;43.50;101493.08;5062826;56;1141021;-77
2023/05/26 12:38:28;;;;;;;9.40;2.65;;;;;;;22.28;41.08;101490.53;5098102;56;1138841;-78
2023/05/26 12:43:33;;;;;;;15.03;3.62;;;;;;;22.45;43.52;101480.56;5127837;56;1138886;-76
2023/05/26 12:48:39;;;;;;;10.60;3.10;;;;;;;22.43;38.76;101490.16;5120647;56;1140997;-78
2023/05/26 12:53:45;;;;;;;10.63;2.95;;;;;;;22.23;39.45;101482.11;5029450;57;1140912;-73
2023/05/26 12:58:51;;;;;;;7.10;3.35;;;;;;;22.30;38.46;101484.98;5030402;57;1140879;-78
2023/05/26 13:03:57;;;;;;;10.47;3.43;;;;;;;22.37;38.75;101490.00;5132468;56;1138894;-78
2023/05/26 13:09:03;;;;;;;11.37;3.13;;;;;;;22.40;39.08;101486.45;5110377;56;1140828;-76
2023/05/26 13:14:09;;;;;;;14.05;3.70;;;;;;;22.24;38.17;101482.95;4994140;57;1140780;-76
2023/05/26 13:19:16;;;;;;;7.43;3.70;;;;;;;22.34;39.31;101475.52;4997621;58;1140934;-78
2023/05/26 13:24:22;;;;;;;10.10;4.45;;;;;;;22.58;38.80;101476.80;5018598;57;1138729;-74
2023/05/26 13:29:27;;;;;;;8.13;3.35;;;;;;;22.57;38.08;101479.16;5031656;56;1140755;-73
2023/05/26 13:34:33;;;;;;;10.75;3.40;;;;;;;22.52;37.86;101476.14;5071213;56;1138900;-74
2023/05/26 13:39:39;;;;;;;8.05;3.15;;;;;;;22.44;38.37;101483.76;5051684;55;1140872;-72
2023/05/26 13:44:44;;;;;;;10.68;3.15;;;;;;;22.43;38.32;101478.03;5061877;56;1138768;-80
2023/05/26 13:49:51;;;;;;;11.82;3.18;;;;;;;22.29;37.10;101477.39;5065434;56;1144605;-77
2023/05/26 13:54:57;;;;;;;13.90;4.08;;;;;;;22.38;40.17;101473.66;5050301;56;1140751;-76
2023/05/26 14:00:05;;;;;;;15.38;4.45;;;;;;;22.60;41.41;101477.47;5041946;56;1140851;-74
2023/05/26 14:05:14;;;;;;;13.57;4.33;;;;;;;22.43;38.37;101482.08;5018356;56;1141387;-77
2023/05/26 14:10:19;;;;;;;9.83;3.35;;;;;;;22.31;37.15;101483.94;5061874;56;1140995;-75
2023/05/26 14:15:25;;;;;;;11.90;4.40;;;;;;;22.26;38.64;101482.28;5021188;56;1138824;-77
2023/05/26 14:20:31;;;;;;;13.43;4.55;;;;;;;22.32;40.19;101486.46;5016380;56;1141014;-73
2023/05/26 14:25:36;;;;;;;16.12;3.75;;;;;;;22.23;40.31;101482.11;5003448;57;1140750;-73
2023/05/26 14:30:42;;;;;;;16.42;4.47;;;;;;;22.26;40.39;101477.73;4990839;57;1140774;-76
2023/05/26 14:35:54;;;;;;;17.30;4.62;;;;;;;22.27;38.00;101488.85;5046430;56;1140828;-73
2023/05/26 14:40:55;;;;;;;16.85;3.65;;;;;;;22.17;40.26;101481.94;5040702;56;1140916;-79
2023/05/26 14:46:00;;;;;;;17.20;4.78;;;;;;;22.21;39.81;101496.27;4945174;57;1141152;-81
2023/05/26 14:51:06;;;;;;;20.90;4.73;;;;;;;22.42;41.31;101485.78;5043615;56;1140978;-80
2023/05/26 14:56:12;;;;;;;13.00;3.70;;;;;;;22.70;41.37;101471.36;5067372;56;1140877;-72
2023/05/26 15:01:17;;;;;;;12.80;3.80;;;;;;;22.65;37.84;101468.84;5042477;56;1140831;-79
2023/05/26 15:06:23;;;;;;;17.25;4.97;;;;;;;22.40;37.61;101475.67;5018296;57;1140724;-74
2023/05/26 15:11:29;;;;;;;14.70;4.25;;;;;;;22.27;39.12;101476.72;5107409;56;1140697;-81
2023/05/26 15:16:38;;;;;;;16.77;4.92;;;;;;;22.43;39.09;101479.89;5127737;56;1140869;-75
2023/05/26 15:21:43;;;;;;;10.88;3.20;;;;;;;22.36;38.02;101482.41;5107651;56;1140922;-77
2023/05/26 15:26:49;;;;;;;23.85;5.37;;;;;;;22.27;38.84;101479.42;5107096;56;1140929;-77
2023/05/26 15:31:55;;;;;;;11.35;3.87;;;;;;;22.10;38.37;101479.95;5126898;56;1140818;-73
2023/05/26 15:37:01;;;;;;;25.30;5.13;;;;;;;22.06;39.43;101483.14;5106546;56;1140805;-77
2023/05/26 15:42:07;;;;;;;15.33;4.87;;;;;;;22.05;40.28;101474.72;5106846;56;1141065;-80
2023/05/26 15:47:12;;;;;;;18.62;4.85;;;;;;;22.08;40.30;101481.13;5105956;56;1141026;-80
2023/05/26 15:52:18;;;;;;;12.85;4.60;;;;;;;22.27;41.38;101478.58;5126379;56;1141041;-73
2023/05/26 15:57:24;;;;;;;15.18;4.92;;;;;;;22.35;40.88;101475.34;5068202;56;1140850;-76
2023/05/26 16:02:30;;;;;;;11.85;4.60;;;;;;;22.32;39.06;101483.77;5058301;56;1140866;-76
2023/05/26 16:07:35;;;;;;;19.92;4.15;;;;;;;22.25;38.40;101483.30;5057809;56;1140929;-78
2023/05/26 16:12:41;;;;;;;12.23;3.87;;;;;;;21.93;38.35;101478.75;5107616;56;1140965;-71
2023/05/26 16:17:47;;;;;;;14.15;4.58;;;;;;;21.75;39.63;101479.77;5107128;56;1140915;-74
2023/05/26 16:22:53;;;;;;;10.28;3.80;;;;;;;21.58;39.26;101474.54;5120246;56;1141249;-79
2023/05/26 16:27:59;;;;;;;12.55;4.08;;;;;;;21.33;39.88;101479.91;5008562;57;1140970;-76
2023/05/26 16:33:04;;;;;;;10.50;3.37;;;;;;;21.27;40.61;101479.20;5102682;56;1140900;-77
2023/05/26 16:38:10;;;;;;;11.53;3.97;;;;;;;21.22;41.32;101480.23;5107088;56;1140930;-76
2023/05/26 16:43:16;;;;;;;21.40;4.28;;;;;;;20.98;42.56;101478.77;5126774;56;1140815;-79
2023/05/26 16:48:21;;;;;;;16.35;5.20;;;;;;;20.76;42.77;101468.12;5106713;56;1140791;-72
2023/05/26 16:53:27;;;;;;;22.77;5.42;;;;;;;20.60;43.45;101481.48;5104708;56;1140755;-72
2023/05/26 16:58:33;;;;;;;17.50;4.37;;;;;;;20.46;42.92;101480.74;5110584;56;1141116;-72
2023/05/26 17:03:39;;;;;;;19.20;5.33;;;;;;;20.25;43.58;101486.45;5115663;56;1140738;-71
2023/05/26 17:08:44;;;;;;;15.25;4.83;;;;;;;20.14;44.92;101492.94;5120068;56;1140527;-73
2023/05/26 17:13:50;;;;;;;17.40;5.08;;;;;;;19.98;45.35;101496.34;5139816;56;1140827;-74
2023/05/26 17:18:55;;;;;;;22.82;4.05;;;;;;;19.95;45.91;101500.69;5120541;56;1140792;-71
2023/05/26 17:24:02;;;;;;;18.90;5.05;;;;;;;19.87;45.83;101508.66;5119934;56;1140725;-72
2023/05/26 17:29:07;;;;;;;15.55;4.50;;;;;;;19.61;46.51;101515.31;5120288;56;1140974;-74
2023/05/26 17:34:14;;;;;;;13.48;4.60;;;;;;;19.53;47.06;101513.91;5138864;56;1140695;-71
2023/05/26 17:39:19;;;;;;;22.07;5.53;;;;;;;19.35;47.20;101516.19;5118620;56;1140740;-71
2023/05/26 17:44:25;;;;;;;28.85;4.90;;;;;;;19.20;47.70;101519.39;5021121;57;1140851;-71
2023/05/26 17:49:32;;;;;;;25.95;5.25;;;;;;;19.05;48.38;101527.59;5133746;56;1140786;-72
2023/05/26 17:54:37;;;;;;;23.50;5.72;;;;;;;18.94;48.35;101525.13;5105701;56;1140822;-72
2023/05/26 17:59:43;;;;;;;20.62;4.55;;;;;;;18.78;48.38;101533.80;5055069;55;1141201;-69
2023/05/26 18:04:48;;;;;;;25.82;6.17;;;;;;;18.66;49.27;101542.98;5148578;56;1140736;-71
2023/05/26 18:09:54;;;;;;;24.67;5.08;;;;;;;18.48;49.79;101544.23;5092749;56;1141093;-71
2023/05/26 18:14:59;;;;;;;20.05;5.67;;;;;;;18.34;50.40;101563.41;5102652;56;1140676;-73
2023/05/26 18:20:06;;;;;;;15.48;5.90;;;;;;;18.23;51.14;101568.44;5123094;56;1140783;-71
2023/05/26 18:25:11;;;;;;;27.15;7.97;;;;;;;18.22;52.13;101567.24;5121845;56;1140834;-72
2023/05/26 18:30:17;;;;;;;26.20;7.37;;;;;;;18.31;52.09;101586.48;5118995;56;1141153;-70
2023/05/26 18:35:22;;;;;;;22.50;7.00;;;;;;;18.37;52.19;101588.58;5118971;56;1141037;-71
2023/05/26 18:40:28;;;;;;;24.25;7.33;;;;;;;18.37;52.02;101589.92;5140089;56;1140818;-74
2023/05/26 18:45:34;;;;;;;23.00;5.10;;;;;;;18.41;51.93;101589.98;5117434;56;1140598;-74
2023/05/26 18:50:40;;;;;;;22.58;5.25;;;;;;;18.41;51.79;101603.38;5099641;56;1140732;-74
2023/05/26 18:55:45;;;;;;;25.27;8.90;;;;;;;18.31;51.95;101615.11;5106869;56;1140992;-74
2023/05/26 19:00:51;;;;;;;18.56;6.44;;;;;;;18.22;52.23;101622.14;4996619;56;1140964;-72
2023/05/26 19:05:58;;;;;;;21.95;7.33;;;;;;;18.07;52.19;101631.58;4984678;56;1140968;-73
2023/05/26 19:11:03;;;;;;;32.50;6.60;;;;;;;17.87;52.28;101640.11;5004762;56;1140813;-72
2023/05/26 19:16:09;;;;;;;22.07;6.27;;;;;;;17.77;52.51;101643.24;4960962;57;1140795;-74
2023/05/26 19:21:14;;;;;;;21.25;5.55;;;;;;;17.57;52.16;101657.02;4961089;57;1141052;-74
2023/05/26 19:26:20;;;;;;;17.37;4.33;;;;;;;17.41;52.05;101656.72;4966253;57;1140927;-73
2023/05/26 19:31:28;;;;;;;15.05;4.97;;;;;;;17.32;52.21;101666.38;5033183;57;1140764;-74
2023/05/26 19:36:34;;;;;;;48.30;27.73;;;;;;;17.25;52.11;101663.91;5041941;57;1140803;-71
2023/05/26 19:41:39;;;;;;;26.53;11.93;;;;;;;17.16;52.44;101674.90;5061934;57;1142920;-73
2023/05/26 19:46:45;;;;;;;29.67;12.40;;;;;;;17.10;52.31;101683.95;5035441;57;1142914;-72
2023/05/26 19:51:51;;;;;;;41.50;14.80;;;;;;;17.02;52.54;101679.25;5041671;57;1142887;-70
2023/05/26 19:56:56;;;;;;;45.43;18.37;;;;;;;16.91;52.93;101685.17;5056345;57;1143399;-68
2023/05/26 20:02:02;;;;;;;44.67;18.07;;;;;;;16.78;53.33;101685.38;5060249;56;1143224;-70
2023/05/26 20:07:08;;;;;;;49.05;19.55;;;;;;;16.70;53.83;101686.50;5105162;56;1142944;-69
2023/05/26 20:12:13;;;;;;;46.92;18.42;;;;;;;16.66;54.00;101694.41;5074913;56;1142975;-69
2023/05/26 20:17:19;;;;;;;36.37;14.83;;;;;;;16.57;54.09;101699.17;5030833;56;1142962;-73
2023/05/26 20:22:24;;;;;;;28.17;9.63;;;;;;;16.47;54.61;101701.78;5018629;57;1143002;-74
2023/05/26 20:27:30;;;;;;;20.93;6.43;;;;;;;16.23;54.66;101713.14;5081388;56;1140949;-74
2023/05/26 20:32:36;;;;;;;18.97;5.77;;;;;;;15.87;55.33;101715.19;5122778;56;1140900;-73
2023/05/26 20:37:43;;;;;;;20.73;5.87;;;;;;;15.74;56.36;101715.30;5102154;56;1140839;-74
2023/05/26 20:42:50;;;;;;;21.10;6.17;;;;;;;15.49;57.23;101723.54;5100971;56;1140707;-73
2023/05/26 20:47:55;;;;;;;14.93;4.90;;;;;;;15.37;57.66;101730.70;5122694;56;1140747;-74
2023/05/26 20:53:01;;;;;;;26.23;5.83;;;;;;;15.28;58.55;101735.88;5102847;56;1140768;-71
2023/05/26 20:58:07;;;;;;;26.82;6.22;;;;;;;15.18;58.71;101729.09;5102901;56;1140815;-72
2023/05/26 21:03:12;;;;;;;22.15;5.92;;;;;;;15.13;59.01;101736.10;5102649;56;1140991;-72
2023/05/26 21:08:18;;;;;;;22.93;6.20;;;;;;;15.05;59.64;101733.20;5121888;56;1141017;-74
2023/05/26 21:13:24;;;;;;;15.30;5.17;;;;;;;15.02;60.21;101741.42;5087662;56;1140820;-72
2023/05/26 21:18:30;;;;;;;23.97;5.93;;;;;;;15.16;60.85;101744.35;5019025;57;1140799;-69
2023/05/26 21:23:35;;;;;;;19.27;6.67;;;;;;;15.23;60.62;101755.40;5098572;56;1140840;-72
2023/05/26 21:28:41;;;;;;;22.37;6.57;;;;;;;15.24;60.81;101751.28;5102215;56;1140848;-69
2023/05/26 21:33:47;;;;;;;25.13;6.83;;;;;;;15.26;60.45;101760.50;5102587;56;1140909;-70
2023/05/26 21:38:52;;;;;;;19.43;5.77;;;;;;;15.21;60.67;101760.84;5117896;56;1140860;-72
2023/05/26 21:43:58;;;;;;;21.50;5.77;;;;;;;15.20;60.92;101765.81;5097674;56;1140885;-72
2023/05/26 21:49:04;;;;;;;28.90;7.20;;;;;;;15.04;60.48;101771.95;5099729;56;1141126;-70
2023/05/26 21:54:09;;;;;;;17.27;5.78;;;;;;;14.87;61.11;101771.05;5034406;56;1141164;-63
2023/05/26 21:59:15;;;;;;;19.07;6.15;;;;;;;14.64;61.24;101766.13;5131273;56;1140841;-66
2023/05/26 22:04:21;;;;;;;24.23;6.70;;;;;;;14.38;61.67;101762.20;5126830;56;1140983;-67
2023/05/26 22:09:26;;;;;;;15.80;5.03;;;;;;;14.33;62.33;101761.72;5117188;56;1140930;-64
2023/05/26 22:14:32;;;;;;;23.53;5.47;;;;;;;14.37;62.88;101763.17;5073317;56;1141114;-65
2023/05/26 22:19:38;;;;;;;21.33;5.53;;;;;;;14.43;63.19;101768.56;5102578;56;1140872;-65
2023/05/26 22:24:43;;;;;;;22.80;5.47;;;;;;;14.43;63.29;101767.23;5102736;56;1140810;-63
2023/05/26 22:29:49;;;;;;;18.60;5.97;;;;;;;14.45;63.47;101768.45;5066880;56;1140932;-70
2023/05/26 22:34:55;;;;;;;20.80;5.43;;;;;;;14.46;63.99;101764.83;5007076;57;1140992;-68
2023/05/26 22:40:01;;;;;;;17.67;5.10;;;;;;;14.44;64.05;101775.59;5045502;56;1141184;-70
2023/05/26 22:45:07;;;;;;;23.50;5.33;;;;;;;14.36;63.97;101780.61;5103218;56;1141053;-67
2023/05/26 22:50:14;;;;;;;16.30;5.87;;;;;;;14.17;63.97;101785.09;5123215;56;1140890;-67
2023/05/26 22:55:19;;;;;;;29.17;6.13;;;;;;;13.98;64.42;101794.87;5103204;56;1140971;-67
2023/05/26 23:00:25;;;;;;;23.07;5.70;;;;;;;13.96;65.04;101791.94;5102473;56;1140759;-66